createdAt,value
2022-12-01T00:00:02.225Z,81
2022-12-01T00:05:01.719Z,60
2022-12-01T00:10:02.101Z,86
2022-12-01T00:15:01.483Z,83
2022-12-01T00:20:01.941Z,78
2022-12-01T00:25:02.418Z,73
2022-12-01T00:30:01.921Z,36
2022-12-01T00:35:02.289Z,84
2022-12-01T00:40:01.816Z,81
2022-12-01T00:45:02.308Z,81
2022-12-01T00:50:01.674Z,78
2022-12-01T00:55:02.055Z,82
2022-12-01T01:00:01.613Z,62
2022-12-01T01:05:02.104Z,114
2022-12-01T01:10:01.615Z,81
2022-12-01T01:15:01.991Z,106
2022-12-01T01:20:01.533Z,109
2022-12-01T01:25:01.904Z,59
2022-12-01T01:30:02.250Z,103
2022-12-01T01:35:01.619Z,58
2022-12-01T01:40:02.158Z,112
2022-12-01T01:45:01.703Z,56
2022-12-01T01:50:02.081Z,123
2022-12-01T01:55:01.568Z,114
2022-12-01T02:00:02.065Z,87
2022-12-01T02:05:01.561Z,116
2022-12-01T02:10:01.943Z,102
2022-12-01T02:15:02.441Z,113
2022-12-01T02:20:02.016Z,104
2022-12-01T02:25:01.516Z,122
2022-12-01T02:30:01.871Z,64
2022-12-01T02:35:02.346Z,119
2022-12-01T02:40:01.722Z,112
2022-12-01T02:45:02.076Z,92
2022-12-01T02:50:01.434Z,108
2022-12-01T02:55:01.923Z,67
2022-12-01T03:00:02.480Z,113
2022-12-01T03:05:01.865Z,100
2022-12-01T03:10:02.275Z,100
2022-12-01T03:15:01.676Z,126
2022-12-01T03:20:02.242Z,97
2022-12-01T03:25:01.617Z,57
2022-12-01T03:30:01.985Z,112
2022-12-01T03:35:01.355Z,99
2022-12-01T03:40:02.043Z,123
2022-12-01T03:45:01.633Z,106
2022-12-01T03:50:02.004Z,75
2022-12-01T03:55:01.396Z,100
2022-12-01T04:00:01.765Z,101
2022-12-01T04:05:02.158Z,52
2022-12-01T04:10:01.554Z,133
2022-12-01T04:15:02.046Z,63
2022-12-01T04:20:01.599Z,147
2022-12-01T04:25:01.938Z,111
2022-12-01T04:30:02.299Z,78
2022-12-01T04:35:01.785Z,153
2022-12-01T04:40:02.167Z,158
2022-12-01T04:45:01.600Z,134
2022-12-01T04:50:01.961Z,54
2022-12-01T04:55:01.437Z,147
2022-12-01T05:00:02.024Z,54
2022-12-01T05:05:01.421Z,64
2022-12-01T05:10:01.833Z,140
2022-12-01T05:15:02.375Z,63
2022-12-01T05:20:01.959Z,132
2022-12-01T05:25:01.451Z,91
2022-12-01T05:30:02.136Z,212
2022-12-01T05:35:01.686Z,148
2022-12-01T05:40:02.206Z,113
2022-12-01T05:45:01.584Z,177
2022-12-01T05:50:05.394Z,256
2022-12-01T05:55:01.602Z,108
2022-12-01T06:00:01.965Z,122
2022-12-01T06:05:01.321Z,179
2022-12-01T06:10:01.698Z,140
2022-12-01T06:15:02.070Z,86
2022-12-01T06:20:01.528Z,125
2022-12-01T06:25:02.017Z,120
2022-12-01T06:30:01.516Z,101
2022-12-01T06:35:02.002Z,114
2022-12-01T06:40:01.595Z,102
2022-12-01T06:45:02.106Z,104
2022-12-01T06:50:01.463Z,60
2022-12-01T06:55:01.954Z,93
2022-12-01T07:00:01.560Z,52
2022-12-01T07:05:02.374Z,91
2022-12-01T07:10:01.957Z,119
2022-12-01T07:15:01.320Z,112
2022-12-01T07:20:01.863Z,93
2022-12-01T07:25:02.231Z,89
2022-12-01T07:30:01.600Z,54
2022-12-01T07:35:02.053Z,46
2022-12-01T07:40:01.571Z,50
2022-12-01T07:45:01.962Z,90
2022-12-01T07:50:01.438Z,60
2022-12-01T07:55:01.917Z,105
2022-12-01T08:00:02.315Z,104
2022-12-01T08:05:01.690Z,104
2022-12-01T08:10:02.222Z,63
2022-12-01T08:20:02.087Z,45
2022-12-01T08:25:01.432Z,56
2022-12-01T08:30:01.792Z,62
2022-12-01T08:35:02.267Z,55
2022-12-01T08:40:01.667Z,55
2022-12-01T08:45:02.126Z,62
2022-12-01T08:50:01.647Z,37
2022-12-01T08:55:02.116Z,70
2022-12-01T09:00:01.488Z,47
2022-12-01T09:05:01.974Z,46
2022-12-01T09:10:01.363Z,36
2022-12-01T09:15:01.923Z,120
2022-12-01T09:20:01.358Z,35
2022-12-01T09:25:01.735Z,53
2022-12-01T09:30:02.265Z,66
2022-12-01T09:35:01.636Z,96
2022-12-01T09:40:02.219Z,80
2022-12-01T09:45:01.777Z,69
2022-12-01T09:50:02.262Z,99
2022-12-01T09:55:01.619Z,48
2022-12-01T10:00:01.999Z,52
2022-12-01T10:05:01.553Z,75
2022-12-01T10:10:02.083Z,139
2022-12-01T10:15:01.634Z,53
2022-12-01T10:20:02.071Z,75
2022-12-01T10:25:01.551Z,121
2022-12-01T10:30:02.050Z,77
2022-12-01T10:35:01.542Z,66
2022-12-01T10:40:02.062Z,72
2022-12-01T10:45:01.559Z,73
2022-12-01T10:50:02.048Z,52
2022-12-01T10:55:01.417Z,65
2022-12-01T11:00:01.806Z,59
2022-12-01T11:05:02.348Z,64
2022-12-01T11:10:01.875Z,62
2022-12-01T11:15:02.330Z,68
2022-12-01T11:20:02.396Z,71
2022-12-01T11:25:01.809Z,40
2022-12-01T11:30:02.177Z,44
2022-12-01T11:35:01.671Z,115
2022-12-01T11:40:02.182Z,104
2022-12-01T11:45:01.549Z,64
2022-12-01T11:50:02.021Z,48
2022-12-01T11:55:05.572Z,54
2022-12-01T12:00:02.007Z,54
2022-12-01T12:05:01.500Z,55
2022-12-01T12:10:01.893Z,44
2022-12-01T12:15:02.274Z,60
2022-12-01T12:20:08.912Z,51
2022-12-01T12:25:01.905Z,38
2022-12-01T12:30:02.409Z,119
2022-12-01T12:35:01.894Z,48
2022-12-01T12:40:02.407Z,95
2022-12-01T12:45:01.858Z,51
2022-12-01T12:50:02.375Z,64
2022-12-01T12:55:01.769Z,37
2022-12-01T13:00:02.266Z,47
2022-12-01T13:05:01.646Z,59
2022-12-01T13:10:02.161Z,132
2022-12-01T13:15:01.632Z,132
2022-12-01T13:20:02.213Z,96
2022-12-01T13:25:01.688Z,29
2022-12-01T13:30:02.140Z,60
2022-12-01T13:35:01.634Z,48
2022-12-01T13:40:02.042Z,46
2022-12-01T13:45:01.619Z,93
2022-12-01T13:50:02.090Z,27
2022-12-01T13:55:01.603Z,29
2022-12-01T14:00:01.985Z,36
2022-12-01T14:05:01.397Z,50
2022-12-01T14:10:01.931Z,53
2022-12-01T14:15:01.388Z,53
2022-12-01T14:20:02.009Z,58
2022-12-01T14:25:01.507Z,52
2022-12-01T14:30:01.876Z,103
2022-12-01T14:35:02.419Z,44
2022-12-01T14:40:01.887Z,44
2022-12-01T14:45:02.398Z,46
2022-12-01T14:50:01.916Z,40
2022-12-01T14:55:02.424Z,89
2022-12-01T15:00:01.933Z,40
2022-12-01T15:05:01.560Z,26
2022-12-01T15:10:02.120Z,35
2022-12-01T15:15:01.666Z,34
2022-12-01T15:20:02.224Z,34
2022-12-01T15:25:01.750Z,23
2022-12-01T15:30:02.252Z,52
2022-12-01T15:35:01.611Z,54
2022-12-01T15:45:01.852Z,112
2022-12-01T15:50:01.527Z,38
2022-12-01T15:55:02.001Z,52
2022-12-01T16:00:01.392Z,38
2022-12-01T16:05:01.896Z,46
2022-12-01T16:10:02.383Z,26
2022-12-01T16:15:01.915Z,22
2022-12-01T16:20:01.569Z,74
2022-12-01T16:25:02.203Z,43
2022-12-01T16:30:01.862Z,38
2022-12-01T16:35:01.842Z,48
2022-12-01T16:40:01.732Z,87
2022-12-01T16:45:02.136Z,23
2022-12-01T16:50:01.617Z,36
2022-12-01T16:55:02.093Z,63
2022-12-01T17:00:01.597Z,44
2022-12-01T17:05:02.080Z,37
2022-12-01T17:10:01.530Z,46
2022-12-01T17:15:02.029Z,57
2022-12-01T17:20:01.603Z,105
2022-12-01T17:25:01.960Z,24
2022-12-01T17:30:01.425Z,100
2022-12-01T17:35:01.857Z,62
2022-12-01T17:40:02.374Z,23
2022-12-01T17:45:01.941Z,39
2022-12-01T17:50:02.321Z,34
2022-12-01T17:55:01.698Z,42
2022-12-01T18:00:02.212Z,48
2022-12-01T18:05:01.693Z,55
2022-12-01T18:10:02.270Z,43
2022-12-01T18:15:01.755Z,36
2022-12-01T18:20:02.312Z,41
2022-12-01T18:25:01.677Z,33
2022-12-01T18:30:02.027Z,64
2022-12-01T18:35:01.587Z,28
2022-12-01T18:40:02.121Z,44
2022-12-01T18:45:01.526Z,64
2022-12-01T18:50:01.968Z,57
2022-12-01T18:55:01.339Z,50
2022-12-01T19:00:01.846Z,26
2022-12-01T19:05:02.399Z,25
2022-12-01T19:10:01.799Z,38
2022-12-01T19:15:02.288Z,42
2022-12-01T19:20:01.717Z,48
2022-12-01T19:25:02.211Z,42
2022-12-01T19:30:01.717Z,32
2022-12-01T19:35:02.296Z,33
2022-12-01T19:40:01.829Z,53
2022-12-01T19:45:02.346Z,46
2022-12-01T19:50:01.860Z,54
2022-12-01T19:55:02.364Z,53
2022-12-01T20:00:01.767Z,26
2022-12-01T20:05:02.145Z,69
2022-12-01T20:10:01.531Z,89
2022-12-01T20:15:02.090Z,43
2022-12-01T20:20:01.661Z,52
2022-12-01T20:25:02.136Z,40
2022-12-01T20:30:01.615Z,40
2022-12-01T20:35:02.117Z,75
2022-12-01T20:40:01.596Z,75
2022-12-01T20:45:01.974Z,86
2022-12-01T20:50:01.456Z,148
2022-12-01T20:55:01.939Z,252
2022-12-01T21:00:02.316Z,273
2022-12-01T21:05:02.039Z,347
2022-12-01T21:10:01.663Z,261
2022-12-01T21:15:02.049Z,353
2022-12-01T21:20:01.734Z,243
2022-12-01T21:25:02.297Z,515
2022-12-01T21:30:01.662Z,556
2022-12-01T21:35:02.194Z,657
2022-12-01T21:40:01.620Z,604
2022-12-01T21:45:02.117Z,426
2022-12-01T21:50:01.611Z,527
2022-12-01T21:55:01.989Z,562
2022-12-01T22:00:01.391Z,537
2022-12-01T22:05:02.169Z,472
2022-12-01T22:10:04.811Z,499
2022-12-01T22:15:02.250Z,442
2022-12-01T22:20:02.095Z,403
2022-12-01T22:25:01.576Z,601
2022-12-01T22:30:02.064Z,606
2022-12-01T22:35:01.532Z,562
2022-12-01T22:40:01.934Z,654
2022-12-01T22:45:02.419Z,500
2022-12-01T22:50:01.781Z,558
2022-12-01T22:55:02.264Z,500
2022-12-01T23:00:01.960Z,597
2022-12-01T23:05:01.524Z,507
2022-12-01T23:10:02.090Z,547
2022-12-01T23:15:01.495Z,457
2022-12-01T23:20:01.887Z,213
2022-12-01T23:25:02.398Z,504
2022-12-01T23:30:01.885Z,505
2022-12-01T23:35:02.729Z,561
2022-12-01T23:40:02.264Z,569
2022-12-01T23:45:01.768Z,585
2022-12-01T23:50:02.136Z,601
2022-12-01T23:55:01.507Z,516
